createdAt,value
2023-03-28T00:01:49.040Z,2.77
2023-03-28T00:04:20.648Z,4.00
2023-03-28T00:06:53.467Z,3.07
2023-03-28T00:09:23.340Z,2.60
2023-03-28T00:11:53.594Z,2.92
2023-03-28T00:14:23.391Z,2.52
2023-03-28T00:16:53.400Z,3.10
2023-03-28T00:19:23.171Z,2.40
2023-03-28T00:21:54.761Z,3.08
2023-03-28T00:24:24.242Z,2.93
2023-03-28T00:26:58.423Z,2.70
2023-03-28T00:29:30.269Z,3.07
2023-03-28T00:32:00.897Z,2.70
2023-03-28T00:34:31.232Z,2.22
2023-03-28T00:37:02.404Z,3.00
2023-03-28T00:39:32.719Z,3.77
2023-03-28T00:42:03.407Z,3.07
2023-03-28T00:44:53.803Z,3.20
2023-03-28T00:47:30.747Z,2.87
2023-03-28T00:50:06.336Z,2.63
2023-03-28T00:52:45.120Z,3.50
2023-03-28T00:55:27.061Z,3.27
2023-03-28T00:57:57.651Z,3.40
2023-03-28T01:00:30.758Z,2.98
2023-03-28T01:03:02.654Z,2.73
2023-03-28T01:05:34.959Z,3.03
2023-03-28T01:08:15.317Z,3.47
2023-03-28T01:10:45.862Z,3.33
2023-03-28T01:13:19.087Z,3.00
2023-03-28T01:15:51.523Z,3.03
2023-03-28T01:18:23.426Z,2.77
2023-03-28T01:20:58.689Z,3.20
2023-03-28T01:23:33.760Z,2.83
2023-03-28T01:26:30.045Z,3.90
2023-03-28T01:29:34.092Z,3.87
2023-03-28T01:32:35.265Z,3.47
2023-03-28T01:35:30.598Z,3.88
2023-03-28T01:38:25.937Z,3.50
2023-03-28T01:41:15.242Z,3.30
2023-03-28T01:44:01.337Z,3.00
2023-03-28T01:46:40.197Z,3.33
2023-03-28T01:49:31.872Z,3.20
2023-03-28T01:52:10.534Z,3.10
2023-03-28T01:54:52.345Z,3.60
2023-03-28T01:57:33.931Z,3.63
2023-03-28T02:00:15.717Z,2.70
2023-03-28T02:03:06.612Z,3.10
2023-03-28T02:05:40.193Z,3.47
2023-03-28T02:08:14.306Z,3.20
2023-03-28T02:10:50.535Z,3.63
2023-03-28T02:13:51.694Z,2.77
2023-03-28T02:16:42.208Z,3.33
2023-03-28T02:19:33.275Z,3.33
2023-03-28T02:22:13.620Z,3.22
2023-03-28T02:24:54.318Z,3.37
2023-03-28T02:27:26.321Z,3.20
2023-03-28T02:30:01.275Z,3.37
2023-03-28T02:32:35.805Z,3.30
2023-03-28T02:35:09.127Z,3.46
2023-03-28T02:38:02.106Z,3.23
2023-03-28T02:40:41.746Z,2.80
2023-03-28T02:43:15.445Z,3.20
2023-03-28T02:46:09.327Z,3.00
2023-03-28T02:49:00.073Z,2.70
2023-03-28T02:51:41.518Z,2.93
2023-03-28T02:54:30.999Z,2.93
2023-03-28T02:57:27.186Z,2.50
2023-03-28T03:00:04.880Z,2.70
2023-03-28T03:02:34.793Z,3.27
2023-03-28T03:05:04.923Z,2.73
2023-03-28T03:07:34.785Z,3.07
2023-03-28T03:10:08.036Z,3.27
2023-03-28T03:12:38.523Z,2.57
2023-03-28T03:15:08.992Z,3.10
2023-03-28T03:17:47.084Z,2.67
2023-03-28T03:20:17.498Z,3.12
2023-03-28T03:22:47.327Z,3.13
2023-03-28T03:25:17.358Z,3.12
2023-03-28T03:27:48.876Z,3.07
2023-03-28T03:30:20.380Z,3.62
2023-03-28T03:32:51.946Z,2.60
2023-03-28T03:35:22.041Z,2.90
2023-03-28T03:37:51.957Z,3.23
2023-03-28T03:40:21.961Z,2.64
2023-03-28T03:42:52.404Z,3.40
2023-03-28T03:45:22.657Z,3.02
2023-03-28T03:47:52.645Z,2.77
2023-03-28T03:50:22.686Z,3.10
2023-03-28T03:52:52.589Z,3.53
2023-03-28T03:55:23.801Z,3.30
2023-03-28T03:57:53.926Z,3.43
2023-03-28T04:00:23.629Z,3.30
2023-03-28T04:02:54.022Z,4.07
2023-03-28T04:05:25.951Z,3.30
2023-03-28T04:08:08.083Z,3.30
2023-03-28T04:10:39.925Z,4.70
2023-03-28T04:13:09.819Z,3.40
2023-03-28T04:15:39.525Z,3.50
2023-03-28T04:18:19.132Z,3.80
2023-03-28T04:20:54.532Z,3.90
2023-03-28T04:23:44.002Z,3.83
2023-03-28T04:26:33.069Z,3.70
2023-03-28T04:29:05.778Z,3.25
2023-03-28T04:31:39.134Z,4.10
2023-03-28T04:34:31.536Z,3.92
2023-03-28T04:37:13.242Z,4.17
2023-03-28T04:39:46.868Z,3.67
2023-03-28T04:42:30.091Z,3.80
2023-03-28T04:45:08.705Z,4.00
2023-03-28T04:47:40.225Z,3.77
2023-03-28T04:50:13.052Z,4.37
2023-03-28T04:52:43.068Z,3.70
2023-03-28T04:55:12.920Z,4.03
2023-03-28T04:57:42.768Z,3.90
2023-03-28T05:00:15.369Z,4.15
2023-03-28T05:02:57.260Z,3.93
2023-03-28T05:05:28.264Z,3.58
2023-03-28T05:07:59.693Z,3.70
2023-03-28T05:10:29.196Z,4.37
2023-03-28T05:13:00.689Z,4.03
2023-03-28T05:15:31.420Z,4.47
2023-03-28T05:18:03.328Z,4.33
2023-03-28T05:20:35.982Z,4.25
2023-03-28T05:23:07.224Z,4.63
2023-03-28T05:25:38.800Z,4.47
2023-03-28T05:28:10.945Z,4.17
2023-03-28T05:30:42.442Z,4.13
2023-03-28T05:33:12.750Z,4.62
2023-03-28T05:35:43.080Z,4.77
2023-03-28T05:38:14.361Z,4.27
2023-03-28T05:40:44.475Z,5.27
2023-03-28T05:43:14.386Z,4.20
2023-03-28T05:45:44.497Z,5.00
2023-03-28T05:48:19.168Z,5.20
2023-03-28T05:50:51.076Z,4.87
2023-03-28T05:53:21.022Z,5.60
2023-03-28T05:55:51.751Z,5.40
2023-03-28T05:58:21.718Z,6.30
2023-03-28T06:00:52.374Z,6.12
2023-03-28T06:03:22.752Z,6.97
2023-03-28T06:05:52.959Z,6.93
2023-03-28T06:08:24.655Z,7.67
2023-03-28T06:10:54.871Z,7.95
2023-03-28T06:13:26.188Z,8.20
2023-03-28T06:15:56.218Z,8.97
2023-03-28T06:18:31.146Z,9.70
2023-03-28T06:21:01.434Z,9.50
2023-03-28T06:23:31.914Z,9.90
2023-03-28T06:26:03.225Z,9.63
2023-03-28T06:28:34.855Z,10.53
2023-03-28T06:33:50.494Z,10.23
2023-03-28T06:36:22.076Z,11.35
2023-03-28T06:38:53.519Z,11.08
2023-03-28T06:41:25.201Z,10.47
2023-03-28T06:43:55.192Z,12.03
2023-03-28T06:46:43.111Z,12.43
2023-03-28T06:49:13.781Z,13.13
2023-03-28T06:52:01.665Z,13.03
2023-03-28T06:54:31.964Z,12.93
2023-03-28T06:57:01.911Z,13.47
2023-03-28T06:59:31.760Z,13.03
2023-03-28T07:02:03.429Z,12.10
2023-03-28T07:04:35.110Z,11.97
2023-03-28T07:07:05.299Z,11.40
2023-03-28T07:09:35.576Z,11.17
2023-03-28T07:12:08.828Z,10.70
2023-03-28T07:14:40.443Z,10.50
2023-03-28T07:17:10.869Z,10.27
2023-03-28T07:19:40.992Z,10.07
2023-03-28T07:22:12.347Z,9.62
2023-03-28T07:24:42.555Z,10.03
2023-03-28T07:27:16.496Z,9.60
2023-03-28T07:29:47.100Z,9.37
2023-03-28T07:32:17.285Z,8.17
2023-03-28T07:34:48.250Z,8.88
2023-03-28T07:37:22.741Z,9.27
2023-03-28T07:39:56.457Z,9.55
2023-03-28T07:42:28.270Z,8.13
2023-03-28T07:44:58.120Z,8.63
2023-03-28T07:47:30.626Z,8.80
2023-03-28T07:50:00.516Z,8.43
2023-03-28T07:52:31.901Z,8.47
2023-03-28T07:55:01.787Z,7.60
2023-03-28T07:57:32.831Z,7.73
2023-03-28T08:00:10.763Z,6.80
2023-03-28T08:02:44.961Z,6.47
2023-03-28T08:05:14.459Z,5.50
2023-03-28T08:07:46.203Z,6.27
2023-03-28T08:10:16.248Z,5.35
2023-03-28T08:12:46.741Z,5.58
2023-03-28T08:15:16.857Z,5.62
2023-03-28T08:17:47.184Z,5.90
2023-03-28T08:20:16.994Z,5.60
2023-03-28T08:23:04.881Z,5.47
2023-03-28T08:25:42.461Z,5.77
2023-03-28T08:28:13.089Z,5.45
2023-03-28T08:30:42.942Z,5.43
2023-03-28T08:33:12.959Z,5.30
2023-03-28T08:35:43.007Z,5.30
2023-03-28T08:38:14.640Z,5.03
2023-03-28T08:40:47.568Z,5.30
2023-03-28T08:43:44.609Z,4.60
2023-03-28T08:46:17.732Z,4.70
2023-03-28T08:48:49.740Z,5.30
2023-03-28T08:51:22.707Z,4.23
2023-03-28T08:54:22.671Z,4.93
2023-03-28T08:56:55.815Z,4.20
2023-03-28T08:59:34.320Z,4.77
2023-03-28T09:02:12.141Z,3.52
2023-03-28T09:04:42.288Z,4.40
2023-03-28T09:07:16.860Z,3.80
2023-03-28T09:10:04.432Z,3.47
2023-03-28T09:12:57.819Z,3.50
2023-03-28T09:15:36.322Z,2.97
2023-03-28T09:18:17.008Z,3.47
2023-03-28T09:20:55.682Z,3.10
2023-03-28T09:24:09.075Z,2.30
2023-03-28T09:26:48.835Z,3.00
2023-03-28T09:29:24.984Z,3.35
2023-03-28T09:32:01.006Z,2.73
2023-03-28T09:34:43.109Z,3.43
2023-03-28T09:37:19.006Z,3.67
2023-03-28T09:39:55.369Z,2.30
2023-03-28T09:42:29.665Z,2.55
2023-03-28T09:48:20.626Z,3.00
2023-03-28T09:50:52.411Z,2.53
2023-03-28T09:53:27.186Z,2.70
2023-03-28T09:56:04.341Z,2.47
2023-03-28T09:58:47.618Z,1.98
2023-03-28T10:04:14.990Z,1.60
2023-03-28T10:07:13.453Z,1.43
2023-03-28T10:09:50.713Z,4.43
2023-03-28T10:12:28.863Z,2.23
2023-03-28T10:14:58.990Z,1.53
2023-03-28T10:17:45.988Z,1.90
2023-03-28T10:20:22.634Z,1.42
2023-03-28T10:22:56.958Z,1.10
2023-03-28T10:25:36.070Z,1.17
2023-03-28T10:28:10.939Z,2.72
2023-03-28T10:30:42.276Z,2.13
2023-03-28T10:33:21.920Z,1.70
2023-03-28T10:36:12.714Z,1.90
2023-03-28T10:38:50.296Z,1.87
2023-03-28T10:41:29.648Z,2.10
2023-03-28T10:44:19.111Z,1.70
2023-03-28T10:46:54.479Z,1.90
2023-03-28T10:49:28.491Z,2.00
2023-03-28T10:52:00.261Z,2.10
2023-03-28T10:54:46.189Z,1.93
2023-03-28T10:57:40.845Z,1.70
2023-03-28T11:00:23.121Z,1.50
2023-03-28T11:03:17.994Z,1.30
2023-03-28T11:06:07.931Z,1.53
2023-03-28T11:08:45.851Z,1.80
2023-03-28T11:11:44.108Z,1.73
2023-03-28T11:14:34.733Z,2.16
2023-03-28T11:17:22.831Z,1.80
2023-03-28T11:20:24.746Z,1.63
2023-03-28T11:23:29.157Z,2.10
2023-03-28T11:26:08.029Z,1.50
2023-03-28T11:28:59.197Z,2.17
2023-03-28T11:31:32.294Z,1.90
2023-03-28T11:34:11.410Z,1.90
2023-03-28T11:36:47.857Z,2.23
2023-03-28T11:39:27.645Z,2.00
2023-03-28T11:41:59.862Z,1.90
2023-03-28T11:44:40.081Z,1.53
2023-03-28T11:47:19.605Z,1.50
2023-03-28T11:50:08.934Z,2.20
2023-03-28T11:52:43.486Z,2.53
2023-03-28T11:55:21.693Z,2.23
2023-03-28T11:58:13.606Z,2.17
2023-03-28T12:00:49.133Z,1.80
2023-03-28T12:03:36.020Z,2.20
2023-03-28T12:06:15.104Z,1.77
2023-03-28T12:09:02.998Z,2.53
2023-03-28T12:11:49.249Z,2.30
2023-03-28T12:14:33.984Z,2.27
2023-03-28T12:17:09.749Z,1.90
2023-03-28T12:19:41.567Z,2.20
2023-03-28T12:22:29.444Z,2.05
2023-03-28T12:27:50.963Z,2.10
2023-03-28T12:30:32.378Z,2.05
2023-03-28T12:33:08.858Z,2.62
2023-03-28T12:35:55.481Z,1.80
2023-03-28T12:38:37.188Z,1.98
2023-03-28T12:41:19.921Z,2.00
2023-03-28T12:43:56.009Z,1.97
2023-03-28T12:46:32.748Z,2.03
2023-03-28T12:49:08.183Z,3.57
2023-03-28T12:51:40.799Z,2.37
2023-03-28T12:54:20.488Z,2.18
2023-03-28T12:57:02.290Z,2.30
2023-03-28T13:02:59.337Z,2.30
2023-03-28T13:05:50.219Z,2.03
2023-03-28T13:08:56.072Z,2.17
2023-03-28T13:11:40.589Z,1.87
2023-03-28T13:14:27.390Z,2.32
2023-03-28T13:16:59.525Z,2.30
2023-03-28T13:19:52.869Z,2.53
2023-03-28T13:22:31.561Z,2.10
2023-03-28T13:25:28.112Z,2.02
2023-03-28T13:28:01.014Z,2.03
2023-03-28T13:30:34.080Z,2.55
2023-03-28T13:33:31.107Z,2.40
2023-03-28T13:36:04.161Z,2.47
2023-03-28T13:38:50.216Z,2.03
2023-03-28T13:41:46.155Z,2.52
2023-03-28T13:44:25.265Z,2.10
2023-03-28T13:46:55.576Z,2.50
2023-03-28T13:49:43.357Z,2.10
2023-03-28T13:52:22.089Z,2.37
2023-03-28T13:54:53.698Z,2.00
2023-03-28T13:57:28.258Z,2.10
2023-03-28T14:00:01.339Z,1.77
2023-03-28T14:02:44.717Z,1.80
2023-03-28T14:05:29.029Z,1.77
2023-03-28T14:08:16.843Z,2.07
2023-03-28T14:10:48.549Z,2.05
2023-03-28T14:13:31.453Z,1.70
2023-03-28T14:16:01.324Z,2.00
2023-03-28T14:18:34.217Z,1.90
2023-03-28T14:21:06.350Z,2.00
2023-03-28T14:23:42.175Z,2.30
2023-03-28T14:26:16.935Z,2.30
2023-03-28T14:28:47.577Z,2.10
2023-03-28T14:31:32.289Z,2.43
2023-03-28T14:34:05.157Z,2.13
2023-03-28T14:36:36.716Z,1.90
2023-03-28T14:39:14.031Z,2.08
2023-03-28T14:41:44.649Z,2.17
2023-03-28T14:44:14.657Z,2.70
2023-03-28T14:46:46.650Z,2.65
2023-03-28T14:49:19.311Z,2.30
2023-03-28T14:51:52.228Z,2.03
2023-03-28T14:57:05.363Z,1.92
2023-03-28T14:59:41.294Z,2.20
2023-03-28T15:04:46.403Z,2.95
2023-03-28T15:07:31.520Z,2.50
2023-03-28T15:10:22.529Z,2.20
2023-03-28T15:13:04.098Z,1.90
2023-03-28T15:15:37.716Z,2.30
2023-03-28T15:18:13.137Z,3.20
2023-03-28T15:20:46.865Z,2.87
2023-03-28T15:23:29.206Z,3.80
2023-03-28T15:26:02.261Z,2.23
2023-03-28T15:28:32.944Z,3.37
2023-03-28T15:31:04.684Z,3.00
2023-03-28T15:33:35.829Z,2.17
2023-03-28T15:36:09.654Z,3.23
2023-03-28T15:38:41.249Z,2.80
2023-03-28T15:41:27.219Z,3.00
2023-03-28T15:44:02.300Z,2.13
2023-03-28T15:46:33.921Z,2.30
2023-03-28T15:49:05.973Z,2.13
2023-03-28T15:51:41.278Z,2.35
2023-03-28T15:54:24.070Z,2.68
2023-03-28T15:56:48.399Z,2.30
2023-03-28T15:59:30.398Z,2.30
2023-03-28T16:02:22.724Z,2.65
2023-03-28T16:05:16.533Z,2.07
2023-03-28T16:07:50.518Z,2.37
2023-03-28T16:10:22.459Z,1.75
2023-03-28T16:12:59.943Z,2.33
2023-03-28T16:15:40.462Z,2.07
2023-03-28T16:18:12.099Z,2.17
2023-03-28T16:20:45.313Z,2.10
2023-03-28T16:23:15.760Z,2.47
2023-03-28T16:25:45.809Z,2.20
2023-03-28T16:28:19.406Z,2.33
2023-03-28T16:30:49.292Z,2.00
2023-03-28T16:33:19.696Z,1.73
2023-03-28T16:35:49.621Z,2.13
2023-03-28T16:38:19.217Z,2.53
2023-03-28T16:40:48.826Z,2.90
2023-03-28T16:43:18.737Z,2.37
2023-03-28T16:45:52.076Z,3.17
2023-03-28T16:48:21.996Z,2.37
2023-03-28T16:50:59.697Z,1.90
2023-03-28T16:53:29.486Z,2.00
2023-03-28T16:55:59.781Z,2.50
2023-03-28T16:58:29.923Z,2.10
2023-03-28T17:01:05.910Z,2.00
2023-03-28T17:03:36.646Z,2.00
2023-03-28T17:06:09.932Z,1.70
2023-03-28T17:08:40.264Z,2.37
2023-03-28T17:11:12.664Z,2.00
2023-03-28T17:13:43.415Z,2.00
2023-03-28T17:16:13.221Z,2.17
2023-03-28T17:18:43.130Z,2.23
2023-03-28T17:21:14.978Z,2.47
2023-03-28T17:23:47.125Z,2.00
2023-03-28T17:26:17.780Z,1.87
2023-03-28T17:28:47.625Z,2.10
2023-03-28T17:31:20.483Z,2.00
2023-03-28T17:33:50.212Z,1.90
2023-03-28T17:36:28.007Z,2.33
2023-03-28T17:39:00.027Z,1.73
2023-03-28T17:41:30.852Z,1.97
2023-03-28T17:44:00.825Z,2.10
2023-03-28T17:46:30.665Z,1.80
2023-03-28T17:49:00.650Z,1.83
2023-03-28T17:51:30.817Z,1.70
2023-03-28T17:54:00.925Z,1.70
2023-03-28T17:56:31.067Z,1.90
2023-03-28T17:59:01.245Z,1.57
2023-03-28T18:01:31.109Z,1.57
2023-03-28T18:04:01.277Z,1.43
2023-03-28T18:06:49.196Z,1.43
2023-03-28T18:09:19.009Z,1.50
2023-03-28T18:11:49.476Z,1.10
2023-03-28T18:14:19.078Z,1.30
2023-03-28T18:16:49.107Z,1.60
2023-03-28T18:19:19.017Z,1.60
2023-03-28T18:21:49.313Z,2.10
2023-03-28T18:24:20.397Z,2.30
2023-03-28T18:26:50.294Z,2.73
2023-03-28T18:29:20.181Z,2.40
2023-03-28T18:31:50.286Z,1.87
2023-03-28T18:34:20.547Z,1.43
2023-03-28T18:36:51.381Z,1.27
2023-03-28T18:39:23.020Z,1.70
2023-03-28T18:41:52.948Z,1.73
2023-03-28T18:44:22.746Z,1.77
2023-03-28T18:46:54.467Z,1.70
2023-03-28T18:49:25.096Z,1.63
2023-03-28T18:51:55.294Z,1.80
2023-03-28T18:54:24.825Z,1.23
2023-03-28T18:56:54.384Z,1.50
2023-03-28T18:59:24.156Z,1.43
2023-03-28T19:01:54.906Z,1.60
2023-03-28T19:04:26.382Z,1.30
2023-03-28T19:06:56.557Z,1.77
2023-03-28T19:09:26.753Z,1.77
2023-03-28T19:11:56.554Z,1.73
2023-03-28T19:14:26.764Z,2.72
2023-03-28T19:16:56.916Z,2.53
2023-03-28T19:19:27.140Z,2.33
2023-03-28T19:21:57.401Z,2.05
2023-03-28T19:24:27.269Z,2.40
2023-03-28T19:26:58.915Z,2.30
2023-03-28T19:29:29.010Z,2.40
2023-03-28T19:31:58.899Z,2.33
2023-03-28T19:34:31.697Z,2.50
2023-03-28T19:37:01.773Z,2.33
2023-03-28T19:39:31.931Z,2.37
2023-03-28T19:42:01.749Z,2.57
2023-03-28T19:44:33.033Z,2.60
2023-03-28T19:47:06.835Z,2.97
2023-03-28T19:49:38.038Z,2.80
2023-03-28T19:52:09.975Z,2.60
2023-03-28T19:54:39.771Z,3.07
2023-03-28T19:57:09.600Z,3.10
2023-03-28T19:59:39.454Z,3.23
2023-03-28T20:02:11.950Z,2.72
2023-03-28T20:04:41.828Z,2.77
2023-03-28T20:07:12.613Z,2.63
2023-03-28T20:09:44.363Z,2.50
2023-03-28T20:12:14.194Z,3.37
2023-03-28T20:14:44.282Z,2.43
2023-03-28T20:17:14.286Z,2.43
2023-03-28T20:19:44.227Z,3.00
2023-03-28T20:22:14.494Z,3.12
2023-03-28T20:24:44.776Z,2.80
2023-03-28T20:27:16.242Z,2.60
2023-03-28T20:29:46.840Z,2.97
2023-03-28T20:32:17.492Z,2.37
2023-03-28T20:34:47.640Z,2.15
2023-03-28T20:37:18.106Z,2.75
2023-03-28T20:39:48.886Z,2.53
2023-03-28T20:42:19.485Z,2.37
2023-03-28T20:44:49.884Z,2.50
2023-03-28T20:47:21.438Z,2.30
2023-03-28T20:49:52.952Z,2.80
2023-03-28T20:52:22.672Z,2.30
2023-03-28T20:54:52.542Z,2.27
2023-03-28T20:57:24.360Z,2.70
2023-03-28T20:59:55.243Z,2.57
2023-03-28T21:02:26.295Z,2.45
2023-03-28T21:04:56.184Z,2.23
2023-03-28T21:07:26.659Z,2.50
2023-03-28T21:09:57.918Z,2.55
2023-03-28T21:12:28.580Z,3.10
2023-03-28T21:14:58.211Z,2.12
2023-03-28T21:17:29.133Z,2.43
2023-03-28T21:19:59.302Z,2.07
2023-03-28T21:22:29.375Z,2.30
2023-03-28T21:24:59.482Z,3.08
2023-03-28T21:27:29.421Z,2.20
2023-03-28T21:30:00.922Z,2.00
2023-03-28T21:32:33.108Z,2.33
2023-03-28T21:35:04.000Z,2.53
2023-03-28T21:37:33.959Z,3.10
2023-03-28T21:40:06.755Z,4.03
2023-03-28T21:42:36.556Z,4.20
2023-03-28T21:45:08.206Z,4.57
2023-03-28T21:47:38.793Z,4.03
2023-03-28T21:50:11.895Z,4.10
2023-03-28T21:52:41.916Z,3.10
2023-03-28T21:55:11.550Z,2.22
2023-03-28T21:57:41.466Z,2.43
2023-03-28T22:00:17.600Z,2.32
2023-03-28T22:02:47.286Z,2.50
2023-03-28T22:05:28.708Z,2.05
2023-03-28T22:07:50.301Z,2.03
2023-03-28T22:10:21.297Z,2.07
2023-03-28T22:12:52.770Z,2.30
2023-03-28T22:15:22.665Z,2.50
2023-03-28T22:17:54.874Z,1.80
2023-03-28T22:20:27.014Z,2.20
2023-03-28T22:22:58.550Z,2.07
2023-03-28T22:25:30.043Z,2.30
2023-03-28T22:27:59.818Z,2.27
2023-03-28T22:30:29.722Z,2.30
2023-03-28T22:32:59.611Z,2.13
2023-03-28T22:35:29.769Z,2.22
2023-03-28T22:38:00.386Z,2.50
2023-03-28T22:40:30.677Z,1.90
2023-03-28T22:43:01.369Z,2.40
2023-03-28T22:45:31.718Z,2.50
2023-03-28T22:48:03.316Z,2.60
2023-03-28T22:50:33.786Z,2.57
2023-03-28T22:53:04.471Z,2.63
2023-03-28T22:55:34.312Z,2.50
2023-03-28T22:58:06.382Z,2.70
2023-03-28T23:00:36.404Z,2.47
2023-03-28T23:03:08.095Z,2.90
2023-03-28T23:05:38.972Z,2.67
2023-03-28T23:08:11.693Z,2.87
2023-03-28T23:10:41.867Z,2.60
2023-03-28T23:13:11.742Z,2.80
2023-03-28T23:15:41.604Z,3.10
2023-03-28T23:18:12.055Z,2.87
2023-03-28T23:20:42.726Z,3.10
2023-03-28T23:23:14.219Z,3.30
2023-03-28T23:25:45.608Z,2.93
2023-03-28T23:28:17.244Z,2.97
2023-03-28T23:30:47.310Z,3.17
2023-03-28T23:33:18.321Z,3.02
2023-03-28T23:35:48.570Z,3.33
2023-03-28T23:38:18.167Z,3.20
2023-03-28T23:40:48.471Z,2.95
2023-03-28T23:43:18.569Z,3.00
2023-03-28T23:45:48.392Z,2.97
2023-03-28T23:48:18.050Z,3.03
2023-03-28T23:50:47.851Z,3.40
2023-03-28T23:53:17.657Z,3.40
2023-03-28T23:55:47.531Z,3.00
2023-03-28T23:58:17.173Z,3.00
